ADDS METAR Data INFO
IDs: Format: Raw Decoded Include TAF

Data at: 1957 UTC 15 Dec 2017

KPMD 151953Z AUTO 00000KT 10SM CLR 17/M10 A3020 RMK AO2 SLP223 T01671100 TSNO
KPMD 151853Z AUTO 00000KT 10SM CLR 14/M11 A3025 RMK AO2 SLP241 T01391106 TSNO
KPMD 151753Z AUTO 00000KT 10SM CLR 12/M10 A3028 RMK AO2 SLP252 T01171100 10117 21006 50003 TSNO
KPMD 151653Z AUTO 15003KT 10SM CLR 07/M10 A3028 RMK AO2 SLP257 T00721100 TSNO
KPMD 151553Z AUTO 00000KT 10SM CLR 03/M11 A3028 RMK AO2 SLP260 T00281111 TSNO
KPMD 151453Z AUTO 00000KT 10SM CLR 00/M11 A3027 RMK AO2 SLP259 T00001106 55001 TSNO
KPMD 151353Z AUTO 25005KT 10SM CLR 01/M11 A3027 RMK AO2 SLP254 T00061106 TSNO
KPMD 151253Z AUTO 23005KT 10SM CLR M01/M11 A3027 RMK AO2 SLP252 T10061111 TSNO
KPMD 151153Z AUTO 22003KT 10SM CLR 01/M11 A3028 RMK AO2 SLP248 T00061106 10067 21006 50000 TSNO
KPMD 151053Z AUTO 00000KT 10SM CLR 01/M12 A3028 RMK AO2 SLP250 T00061117 TSNO
KPMD 150953Z AUTO 00000KT 10SM CLR 03/M12 A3028 RMK AO2 SLP247 T00331117 TSNO
KPMD 150853Z AUTO 25003KT 10SM CLR 01/M12 A3028 RMK AO2 SLP246 T00111122 51003 TSNO
KPMD 150753Z AUTO 00000KT 10SM CLR 03/M12 A3027 RMK AO2 SLP244 T00281122 402221028 TSNO
KPMD 150653Z AUTO 28003KT 10SM CLR 06/M12 A3027 RMK AO2 SLP246 T00561117 TSNO
KPMD 150553Z AUTO 00000KT 10SM CLR 06/M11 A3027 RMK AO2 SLP244 T00611111 10200 20056 53016 TSNO
KPMD 150453Z AUTO 32005KT 10SM CLR 06/M12 A3025 RMK AO2 SLP244 T00611122 TSNO
KPMD 150353Z AUTO 12003KT 10SM CLR 07/M09 A3023 RMK AO2 SLP242 T00721094 TSNO
KPMD 150253Z AUTO 12007KT 10SM CLR 08/M09 A3022 RMK AO2 SLP239 T00781089 53012 TSNO
KPMD 150153Z AUTO 10010KT 10SM CLR 12/M11 A3020 RMK AO2 SLP231 T01171111 TSNO
KPMD 150053Z AUTO 08009KT 10SM CLR 14/M10 A3019 RMK AO2 SLP224 T01391100 TSNO
KPMD 142353Z AUTO 09010KT 10SM CLR 20/M10 A3018 RMK AO2 SLP214 T02001100 10222 20144 53004 TSNO
KPMD 142253Z AUTO 10015KT 10SM CLR 22/M11 A3016 RMK AO2 SLP208 T02171111 TSNO
KPMD 142153Z AUTO 10015KT 10SM CLR 22/M11 A3016 RMK AO2 SLP207 T02221111 TSNO
KPMD 142053Z AUTO 08018KT 10SM CLR 22/M11 A3016 RMK AO2 SLP206 T02221111 58014 TSNO
KPMD 141953Z AUTO 06018G26KT 10SM CLR 21/M12 A3018 RMK AO2 PK WND 06026/1948 SLP211 T02111117 TSNO
KPMD 141853Z AUTO 05007KT 10SM CLR 16/M14 A3020 RMK AO2 SLP224 T01611139 TSNO
KPMD 141753Z AUTO 05010KT 10SM CLR 14/M16 A3021 RMK AO2 SLP226 T01441161 10144 21028 51012 TSNO
KPMD 141653Z AUTO 02007KT 10SM CLR 08/M16 A3020 RMK AO2 SLP227 T00781156 TSNO
KPMD 141615Z AUTO 00000KT 10SM 04/M16 A3019
KPMD 141553Z AUTO 32003KT 10SM CLR 03/M16 A3019 RMK AO2 SLP228 T00281161 TSNO
KPMD 141453Z AUTO 00000KT 10SM CLR M01/M17 A3017 RMK AO2 SLP225 T10061172 53028 TSNO
KPMD 141353Z AUTO VRB03KT 10SM CLR M01/M17 A3014 RMK AO2 SLP213 T10111167 TSNO
KPMD 141253Z AUTO 18006KT 10SM CLR M01/M17 A3011 RMK AO2 SLP194 T10061167 TSNO
KPMD 141153Z AUTO 10SM CLR 01/M16 A3008 RMK AO2 SLP182 T00061156 10061 21006 51012 TSNO
KPMD 141053Z AUTO 20006KT 10SM CLR 00/M16 A3008 RMK AO2 SLP181 T00001161 TSNO
KPMD 140953Z AUTO 00000KT 10SM CLR 00/M17 A3008 RMK AO2 SLP180 T00001172 TSNO
KPMD 140853Z AUTO 00000KT 10SM CLR 02/M17 A3005 RMK AO2 SLP169 T00171167 58001 TSNO